sensor_id;sensor_type;location;lat;lon;timestamp;P1;durP1;ratioP1;P2;durP2;ratioP2
25637;SDS011;13496;51.040;13.680;2022-07-23T00:03:06;2.47;;;2.28;;
25637;SDS011;13496;51.040;13.680;2022-07-23T00:08:07;2.50;;;2.40;;
25637;SDS011;13496;51.040;13.680;2022-07-23T00:13:09;2.70;;;2.50;;
25637;SDS011;13496;51.040;13.680;2022-07-23T00:18:11;2.75;;;2.55;;
25637;SDS011;13496;51.040;13.680;2022-07-23T00:23:13;2.47;;;2.38;;
25637;SDS011;13496;51.040;13.680;2022-07-23T00:28:15;2.33;;;2.22;;
25637;SDS011;13496;51.040;13.680;2022-07-23T00:33:17;1.90;;;1.80;;
25637;SDS011;13496;51.040;13.680;2022-07-23T00:38:19;2.20;;;2.10;;
25637;SDS011;13496;51.040;13.680;2022-07-23T00:43:20;2.72;;;2.53;;
25637;SDS011;13496;51.040;13.680;2022-07-23T00:48:23;2.55;;;2.35;;
25637;SDS011;13496;51.040;13.680;2022-07-23T00:53:25;2.30;;;2.10;;
25637;SDS011;13496;51.040;13.680;2022-07-23T00:58:27;2.40;;;2.22;;
25637;SDS011;13496;51.040;13.680;2022-07-23T01:03:30;2.15;;;2.05;;
25637;SDS011;13496;51.040;13.680;2022-07-23T01:08:31;1.90;;;1.80;;
25637;SDS011;13496;51.040;13.680;2022-07-23T01:13:33;2.15;;;2.05;;
25637;SDS011;13496;51.040;13.680;2022-07-23T01:18:35;2.22;;;2.13;;
25637;SDS011;13496;51.040;13.680;2022-07-23T01:23:37;2.13;;;2.03;;
25637;SDS011;13496;51.040;13.680;2022-07-23T01:28:39;2.30;;;2.10;;
25637;SDS011;13496;51.040;13.680;2022-07-23T01:33:41;2.25;;;2.15;;
25637;SDS011;13496;51.040;13.680;2022-07-23T01:38:44;2.38;;;2.28;;
25637;SDS011;13496;51.040;13.680;2022-07-23T01:43:46;2.38;;;2.28;;
25637;SDS011;13496;51.040;13.680;2022-07-23T01:48:48;2.15;;;2.05;;
25637;SDS011;13496;51.040;13.680;2022-07-23T01:54:26;2.08;;;1.98;;
25637;SDS011;13496;51.040;13.680;2022-07-23T01:59:28;2.00;;;1.90;;
25637;SDS011;13496;51.040;13.680;2022-07-23T02:04:30;2.00;;;1.90;;
25637;SDS011;13496;51.040;13.680;2022-07-23T02:09:34;2.25;;;2.15;;
25637;SDS011;13496;51.040;13.680;2022-07-23T02:14:36;2.00;;;1.90;;
25637;SDS011;13496;51.040;13.680;2022-07-23T02:19:37;2.10;;;2.00;;
25637;SDS011;13496;51.040;13.680;2022-07-23T02:24:39;2.38;;;2.17;;
25637;SDS011;13496;51.040;13.680;2022-07-23T02:29:41;2.15;;;2.05;;
25637;SDS011;13496;51.040;13.680;2022-07-23T02:34:42;2.08;;;1.98;;
25637;SDS011;13496;51.040;13.680;2022-07-23T02:39:45;2.00;;;1.90;;
25637;SDS011;13496;51.040;13.680;2022-07-23T02:44:47;2.13;;;2.03;;
25637;SDS011;13496;51.040;13.680;2022-07-23T02:49:49;2.30;;;2.05;;
25637;SDS011;13496;51.040;13.680;2022-07-23T02:54:51;2.00;;;1.90;;
25637;SDS011;13496;51.040;13.680;2022-07-23T02:59:53;2.08;;;1.98;;
25637;SDS011;13496;51.040;13.680;2022-07-23T03:04:55;2.10;;;2.00;;
25637;SDS011;13496;51.040;13.680;2022-07-23T03:09:56;2.03;;;1.92;;
25637;SDS011;13496;51.040;13.680;2022-07-23T03:14:58;2.20;;;2.10;;
25637;SDS011;13496;51.040;13.680;2022-07-23T03:20:02;2.08;;;1.98;;
25637;SDS011;13496;51.040;13.680;2022-07-23T03:25:04;1.92;;;1.83;;
25637;SDS011;13496;51.040;13.680;2022-07-23T03:30:10;2.30;;;2.20;;
25637;SDS011;13496;51.040;13.680;2022-07-23T03:35:13;1.65;;;1.55;;
25637;SDS011;13496;51.040;13.680;2022-07-23T03:40:23;2.10;;;2.00;;
25637;SDS011;13496;51.040;13.680;2022-07-23T03:45:25;1.90;;;1.80;;
25637;SDS011;13496;51.040;13.680;2022-07-23T03:50:27;1.90;;;1.80;;
25637;SDS011;13496;51.040;13.680;2022-07-23T03:55:29;1.90;;;1.80;;
25637;SDS011;13496;51.040;13.680;2022-07-23T04:00:31;2.10;;;1.90;;
25637;SDS011;13496;51.040;13.680;2022-07-23T04:05:33;2.17;;;2.08;;
25637;SDS011;13496;51.040;13.680;2022-07-23T04:10:42;2.10;;;2.00;;
25637;SDS011;13496;51.040;13.680;2022-07-23T04:15:44;1.95;;;1.85;;
25637;SDS011;13496;51.040;13.680;2022-07-23T04:20:46;1.70;;;1.60;;
25637;SDS011;13496;51.040;13.680;2022-07-23T04:25:48;2.03;;;1.92;;
25637;SDS011;13496;51.040;13.680;2022-07-23T04:30:49;1.80;;;1.70;;
25637;SDS011;13496;51.040;13.680;2022-07-23T04:35:53;2.03;;;1.92;;
25637;SDS011;13496;51.040;13.680;2022-07-23T04:40:55;1.70;;;1.60;;
25637;SDS011;13496;51.040;13.680;2022-07-23T04:45:57;1.85;;;1.75;;
25637;SDS011;13496;51.040;13.680;2022-07-23T04:51:00;2.20;;;2.10;;
25637;SDS011;13496;51.040;13.680;2022-07-23T04:56:04;1.92;;;1.83;;
25637;SDS011;13496;51.040;13.680;2022-07-23T05:01:07;1.80;;;1.70;;
25637;SDS011;13496;51.040;13.680;2022-07-23T05:06:11;1.92;;;1.83;;
25637;SDS011;13496;51.040;13.680;2022-07-23T05:11:12;1.85;;;1.75;;
25637;SDS011;13496;51.040;13.680;2022-07-23T05:16:14;2.03;;;1.92;;
25637;SDS011;13496;51.040;13.680;2022-07-23T05:21:17;1.90;;;1.80;;
25637;SDS011;13496;51.040;13.680;2022-07-23T05:26:19;1.70;;;1.60;;
25637;SDS011;13496;51.040;13.680;2022-07-23T05:31:21;1.98;;;1.88;;
25637;SDS011;13496;51.040;13.680;2022-07-23T05:36:23;1.70;;;1.60;;
25637;SDS011;13496;51.040;13.680;2022-07-23T05:41:28;1.90;;;1.80;;
25637;SDS011;13496;51.040;13.680;2022-07-23T05:46:30;1.73;;;1.63;;
25637;SDS011;13496;51.040;13.680;2022-07-23T05:51:37;2.00;;;1.90;;
25637;SDS011;13496;51.040;13.680;2022-07-23T05:56:40;1.90;;;1.80;;
25637;SDS011;13496;51.040;13.680;2022-07-23T06:01:42;1.98;;;1.88;;
25637;SDS011;13496;51.040;13.680;2022-07-23T06:06:45;2.17;;;2.08;;
25637;SDS011;13496;51.040;13.680;2022-07-23T06:11:47;1.98;;;1.85;;
25637;SDS011;13496;51.040;13.680;2022-07-23T06:16:49;1.95;;;1.85;;
25637;SDS011;13496;51.040;13.680;2022-07-23T06:21:51;1.95;;;1.85;;
25637;SDS011;13496;51.040;13.680;2022-07-23T06:26:53;1.90;;;1.80;;
25637;SDS011;13496;51.040;13.680;2022-07-23T06:31:55;1.88;;;1.77;;
25637;SDS011;13496;51.040;13.680;2022-07-23T06:36:57;2.03;;;1.92;;
25637;SDS011;13496;51.040;13.680;2022-07-23T06:42:01;1.90;;;1.80;;
25637;SDS011;13496;51.040;13.680;2022-07-23T06:47:14;1.92;;;1.83;;
25637;SDS011;13496;51.040;13.680;2022-07-23T06:52:16;1.95;;;1.85;;
25637;SDS011;13496;51.040;13.680;2022-07-23T06:57:18;2.30;;;2.20;;
25637;SDS011;13496;51.040;13.680;2022-07-23T07:02:20;2.28;;;1.90;;
25637;SDS011;13496;51.040;13.680;2022-07-23T07:07:23;2.20;;;2.10;;
25637;SDS011;13496;51.040;13.680;2022-07-23T07:12:24;2.15;;;1.95;;
25637;SDS011;13496;51.040;13.680;2022-07-23T07:17:26;2.05;;;1.95;;
25637;SDS011;13496;51.040;13.680;2022-07-23T07:22:28;1.85;;;1.75;;
25637;SDS011;13496;51.040;13.680;2022-07-23T07:27:29;2.15;;;2.05;;
25637;SDS011;13496;51.040;13.680;2022-07-23T07:32:31;2.22;;;2.10;;
25637;SDS011;13496;51.040;13.680;2022-07-23T07:37:37;2.05;;;1.95;;
25637;SDS011;13496;51.040;13.680;2022-07-23T07:42:49;2.72;;;2.10;;
25637;SDS011;13496;51.040;13.680;2022-07-23T07:47:52;2.10;;;2.00;;
25637;SDS011;13496;51.040;13.680;2022-07-23T07:52:54;2.10;;;2.00;;
25637;SDS011;13496;51.040;13.680;2022-07-23T07:57:56;2.58;;;2.38;;
25637;SDS011;13496;51.040;13.680;2022-07-23T08:02:57;2.38;;;2.28;;
25637;SDS011;13496;51.040;13.680;2022-07-23T08:07:59;2.40;;;2.30;;
25637;SDS011;13496;51.040;13.680;2022-07-23T08:13:01;2.38;;;2.17;;
25637;SDS011;13496;51.040;13.680;2022-07-23T08:18:03;2.10;;;2.00;;
25637;SDS011;13496;51.040;13.680;2022-07-23T08:23:06;2.30;;;2.20;;
25637;SDS011;13496;51.040;13.680;2022-07-23T08:28:10;1.83;;;1.73;;
25637;SDS011;13496;51.040;13.680;2022-07-23T08:33:14;2.58;;;2.30;;
25637;SDS011;13496;51.040;13.680;2022-07-23T08:38:17;2.05;;;1.95;;
25637;SDS011;13496;51.040;13.680;2022-07-23T08:43:22;2.20;;;2.10;;
25637;SDS011;13496;51.040;13.680;2022-07-23T08:48:30;2.47;;;2.30;;
25637;SDS011;13496;51.040;13.680;2022-07-23T08:53:33;2.10;;;2.00;;
25637;SDS011;13496;51.040;13.680;2022-07-23T08:58:37;2.35;;;2.25;;
25637;SDS011;13496;51.040;13.680;2022-07-23T09:03:38;2.38;;;2.17;;
25637;SDS011;13496;51.040;13.680;2022-07-23T09:08:41;2.03;;;1.92;;
25637;SDS011;13496;51.040;13.680;2022-07-23T09:13:48;4.72;;;2.45;;
25637;SDS011;13496;51.040;13.680;2022-07-23T09:18:53;1.90;;;1.80;;
25637;SDS011;13496;51.040;13.680;2022-07-23T09:24:09;2.38;;;2.17;;
25637;SDS011;13496;51.040;13.680;2022-07-23T09:29:13;2.45;;;2.25;;
25637;SDS011;13496;51.040;13.680;2022-07-23T09:34:22;2.80;;;2.60;;
25637;SDS011;13496;51.040;13.680;2022-07-23T09:39:27;2.40;;;2.20;;
25637;SDS011;13496;51.040;13.680;2022-07-23T09:44:30;2.70;;;2.50;;
25637;SDS011;13496;51.040;13.680;2022-07-23T09:49:31;2.30;;;2.20;;
25637;SDS011;13496;51.040;13.680;2022-07-23T09:54:34;2.50;;;2.35;;
25637;SDS011;13496;51.040;13.680;2022-07-23T09:59:38;2.45;;;2.30;;
25637;SDS011;13496;51.040;13.680;2022-07-23T10:04:40;2.42;;;2.30;;
25637;SDS011;13496;51.040;13.680;2022-07-23T10:10:00;5.13;;;2.10;;
25637;SDS011;13496;51.040;13.680;2022-07-23T10:15:35;2.53;;;2.33;;
25637;SDS011;13496;51.040;13.680;2022-07-23T10:20:37;2.67;;;2.47;;
25637;SDS011;13496;51.040;13.680;2022-07-23T10:25:51;2.95;;;2.75;;
25637;SDS011;13496;51.040;13.680;2022-07-23T10:31:13;2.78;;;2.58;;
25637;SDS011;13496;51.040;13.680;2022-07-23T10:36:41;3.03;;;2.78;;
25637;SDS011;13496;51.040;13.680;2022-07-23T10:41:48;2.80;;;2.60;;
25637;SDS011;13496;51.040;13.680;2022-07-23T10:47:00;2.80;;;2.60;;
25637;SDS011;13496;51.040;13.680;2022-07-23T10:52:25;2.65;;;2.45;;
25637;SDS011;13496;51.040;13.680;2022-07-23T10:57:28;3.00;;;2.70;;
25637;SDS011;13496;51.040;13.680;2022-07-23T11:02:30;2.45;;;2.35;;
25637;SDS011;13496;51.040;13.680;2022-07-23T11:07:32;2.70;;;2.50;;
25637;SDS011;13496;51.040;13.680;2022-07-23T11:12:35;2.60;;;2.40;;
25637;SDS011;13496;51.040;13.680;2022-07-23T11:27:46;2.40;;;2.30;;
25637;SDS011;13496;51.040;13.680;2022-07-23T11:32:48;3.00;;;2.70;;
25637;SDS011;13496;51.040;13.680;2022-07-23T11:37:50;2.90;;;2.70;;
25637;SDS011;13496;51.040;13.680;2022-07-23T11:42:56;2.30;;;2.20;;
25637;SDS011;13496;51.040;13.680;2022-07-23T11:47:57;2.70;;;2.55;;
25637;SDS011;13496;51.040;13.680;2022-07-23T11:52:59;2.80;;;2.60;;
25637;SDS011;13496;51.040;13.680;2022-07-23T11:58:02;2.72;;;2.53;;
25637;SDS011;13496;51.040;13.680;2022-07-23T12:03:04;2.70;;;2.50;;
25637;SDS011;13496;51.040;13.680;2022-07-23T12:08:08;2.97;;;2.78;;
25637;SDS011;13496;51.040;13.680;2022-07-23T12:13:15;2.60;;;2.40;;
25637;SDS011;13496;51.040;13.680;2022-07-23T12:18:22;2.67;;;2.55;;
25637;SDS011;13496;51.040;13.680;2022-07-23T12:23:25;2.63;;;2.42;;
25637;SDS011;13496;51.040;13.680;2022-07-23T12:28:31;2.40;;;2.20;;
25637;SDS011;13496;51.040;13.680;2022-07-23T12:33:36;3.03;;;2.83;;
25637;SDS011;13496;51.040;13.680;2022-07-23T12:38:44;2.60;;;2.50;;
25637;SDS011;13496;51.040;13.680;2022-07-23T12:43:50;2.75;;;2.60;;
25637;SDS011;13496;51.040;13.680;2022-07-23T12:48:52;2.83;;;2.63;;
25637;SDS011;13496;51.040;13.680;2022-07-23T12:53:56;2.75;;;2.55;;
25637;SDS011;13496;51.040;13.680;2022-07-23T13:09:18;3.15;;;2.85;;
25637;SDS011;13496;51.040;13.680;2022-07-23T13:14:21;2.53;;;2.42;;
25637;SDS011;13496;51.040;13.680;2022-07-23T13:19:23;3.00;;;2.80;;
25637;SDS011;13496;51.040;13.680;2022-07-23T13:24:25;3.08;;;2.88;;
25637;SDS011;13496;51.040;13.680;2022-07-23T13:29:26;2.80;;;2.60;;
25637;SDS011;13496;51.040;13.680;2022-07-23T13:34:28;3.15;;;2.95;;
25637;SDS011;13496;51.040;13.680;2022-07-23T13:39:30;3.03;;;2.83;;
25637;SDS011;13496;51.040;13.680;2022-07-23T13:44:31;2.95;;;2.75;;
25637;SDS011;13496;51.040;13.680;2022-07-23T13:49:33;3.42;;;3.17;;
25637;SDS011;13496;51.040;13.680;2022-07-23T13:54:35;2.90;;;2.70;;
25637;SDS011;13496;51.040;13.680;2022-07-23T13:59:37;3.50;;;3.20;;
25637;SDS011;13496;51.040;13.680;2022-07-23T14:04:39;3.38;;;3.17;;
25637;SDS011;13496;51.040;13.680;2022-07-23T14:09:40;3.50;;;3.20;;
25637;SDS011;13496;51.040;13.680;2022-07-23T14:14:42;3.30;;;3.10;;
25637;SDS011;13496;51.040;13.680;2022-07-23T14:19:44;3.40;;;3.20;;
25637;SDS011;13496;51.040;13.680;2022-07-23T14:24:46;3.45;;;3.25;;
25637;SDS011;13496;51.040;13.680;2022-07-23T14:29:48;3.33;;;3.13;;
25637;SDS011;13496;51.040;13.680;2022-07-23T14:34:49;3.50;;;3.30;;
25637;SDS011;13496;51.040;13.680;2022-07-23T14:39:51;3.42;;;3.13;;
25637;SDS011;13496;51.040;13.680;2022-07-23T14:44:53;3.08;;;2.88;;
25637;SDS011;13496;51.040;13.680;2022-07-23T14:49:55;3.70;;;3.50;;
25637;SDS011;13496;51.040;13.680;2022-07-23T14:54:57;3.33;;;3.13;;
25637;SDS011;13496;51.040;13.680;2022-07-23T14:59:58;3.35;;;3.15;;
25637;SDS011;13496;51.040;13.680;2022-07-23T15:05:00;3.83;;;3.60;;
25637;SDS011;13496;51.040;13.680;2022-07-23T15:10:02;3.30;;;3.10;;
25637;SDS011;13496;51.040;13.680;2022-07-23T15:15:04;3.17;;;2.97;;
25637;SDS011;13496;51.040;13.680;2022-07-23T15:20:06;3.10;;;2.90;;
25637;SDS011;13496;51.040;13.680;2022-07-23T15:25:09;3.30;;;3.10;;
25637;SDS011;13496;51.040;13.680;2022-07-23T15:30:10;3.55;;;3.33;;
25637;SDS011;13496;51.040;13.680;2022-07-23T15:35:12;3.25;;;3.05;;
25637;SDS011;13496;51.040;13.680;2022-07-23T15:40:14;4.07;;;3.78;;
25637;SDS011;13496;51.040;13.680;2022-07-23T15:45:15;3.40;;;3.20;;
25637;SDS011;13496;51.040;13.680;2022-07-23T15:50:17;3.33;;;3.13;;
25637;SDS011;13496;51.040;13.680;2022-07-23T15:55:19;3.50;;;3.30;;
25637;SDS011;13496;51.040;13.680;2022-07-23T16:00:21;3.90;;;3.60;;
25637;SDS011;13496;51.040;13.680;2022-07-23T16:05:22;3.22;;;3.03;;
25637;SDS011;13496;51.040;13.680;2022-07-23T16:10:34;3.75;;;3.45;;
25637;SDS011;13496;51.040;13.680;2022-07-23T16:15:36;4.03;;;3.72;;
25637;SDS011;13496;51.040;13.680;2022-07-23T16:20:37;4.20;;;3.90;;
25637;SDS011;13496;51.040;13.680;2022-07-23T16:25:39;4.05;;;3.85;;
25637;SDS011;13496;51.040;13.680;2022-07-23T16:30:41;4.40;;;4.10;;
25637;SDS011;13496;51.040;13.680;2022-07-23T16:35:44;4.30;;;4.00;;
25637;SDS011;13496;51.040;13.680;2022-07-23T16:40:45;4.05;;;3.75;;
25637;SDS011;13496;51.040;13.680;2022-07-23T16:45:47;4.32;;;3.92;;
25637;SDS011;13496;51.040;13.680;2022-07-23T16:50:49;4.28;;;3.97;;
25637;SDS011;13496;51.040;13.680;2022-07-23T16:55:51;4.43;;;4.13;;
25637;SDS011;13496;51.040;13.680;2022-07-23T17:00:53;4.20;;;3.90;;
25637;SDS011;13496;51.040;13.680;2022-07-23T17:05:55;4.25;;;3.95;;
25637;SDS011;13496;51.040;13.680;2022-07-23T17:10:57;4.85;;;4.45;;
25637;SDS011;13496;51.040;13.680;2022-07-23T17:15:59;4.25;;;3.95;;
25637;SDS011;13496;51.040;13.680;2022-07-23T17:21:00;4.38;;;4.07;;
25637;SDS011;13496;51.040;13.680;2022-07-23T17:26:04;4.25;;;3.95;;
25637;SDS011;13496;51.040;13.680;2022-07-23T17:31:06;4.57;;;4.28;;
25637;SDS011;13496;51.040;13.680;2022-07-23T17:36:08;4.55;;;4.15;;
25637;SDS011;13496;51.040;13.680;2022-07-23T17:41:10;4.93;;;4.53;;
25637;SDS011;13496;51.040;13.680;2022-07-23T17:46:11;4.95;;;4.55;;
25637;SDS011;13496;51.040;13.680;2022-07-23T17:51:13;4.60;;;4.30;;
25637;SDS011;13496;51.040;13.680;2022-07-23T17:56:15;4.70;;;4.40;;
25637;SDS011;13496;51.040;13.680;2022-07-23T18:01:17;4.68;;;4.30;;
25637;SDS011;13496;51.040;13.680;2022-07-23T18:06:19;5.40;;;5.00;;
25637;SDS011;13496;51.040;13.680;2022-07-23T18:11:20;4.72;;;4.32;;
25637;SDS011;13496;51.040;13.680;2022-07-23T18:16:22;4.22;;;3.92;;
25637;SDS011;13496;51.040;13.680;2022-07-23T18:21:24;4.72;;;4.43;;
25637;SDS011;13496;51.040;13.680;2022-07-23T18:26:26;5.07;;;4.68;;
25637;SDS011;13496;51.040;13.680;2022-07-23T18:31:27;4.70;;;4.40;;
25637;SDS011;13496;51.040;13.680;2022-07-23T18:36:29;4.78;;;4.47;;
25637;SDS011;13496;51.040;13.680;2022-07-23T18:41:32;4.78;;;4.47;;
25637;SDS011;13496;51.040;13.680;2022-07-23T18:46:35;4.60;;;4.30;;
25637;SDS011;13496;51.040;13.680;2022-07-23T18:51:37;4.97;;;4.57;;
25637;SDS011;13496;51.040;13.680;2022-07-23T18:56:38;4.22;;;3.92;;
25637;SDS011;13496;51.040;13.680;2022-07-23T19:01:41;4.35;;;4.05;;
25637;SDS011;13496;51.040;13.680;2022-07-23T19:06:43;4.38;;;4.07;;
25637;SDS011;13496;51.040;13.680;2022-07-23T19:11:44;4.30;;;4.00;;
25637;SDS011;13496;51.040;13.680;2022-07-23T19:16:46;4.63;;;4.32;;
25637;SDS011;13496;51.040;13.680;2022-07-23T19:21:49;4.10;;;3.80;;
25637;SDS011;13496;51.040;13.680;2022-07-23T19:26:50;4.30;;;4.00;;
25637;SDS011;13496;51.040;13.680;2022-07-23T19:31:52;4.20;;;3.90;;
25637;SDS011;13496;51.040;13.680;2022-07-23T19:36:54;3.90;;;3.70;;
25637;SDS011;13496;51.040;13.680;2022-07-23T19:41:56;4.05;;;3.78;;
25637;SDS011;13496;51.040;13.680;2022-07-23T19:46:57;4.22;;;3.92;;
25637;SDS011;13496;51.040;13.680;2022-07-23T19:51:59;4.35;;;4.05;;
25637;SDS011;13496;51.040;13.680;2022-07-23T19:57:01;4.07;;;3.83;;
25637;SDS011;13496;51.040;13.680;2022-07-23T20:02:03;4.70;;;4.40;;
25637;SDS011;13496;51.040;13.680;2022-07-23T20:07:04;4.63;;;4.22;;
25637;SDS011;13496;51.040;13.680;2022-07-23T20:12:09;4.65;;;4.35;;
25637;SDS011;13496;51.040;13.680;2022-07-23T20:17:11;4.53;;;4.22;;
25637;SDS011;13496;51.040;13.680;2022-07-23T20:22:13;4.63;;;4.32;;
25637;SDS011;13496;51.040;13.680;2022-07-23T20:27:14;4.90;;;4.55;;
25637;SDS011;13496;51.040;13.680;2022-07-23T20:32:16;4.40;;;4.10;;
25637;SDS011;13496;51.040;13.680;2022-07-23T20:37:18;4.13;;;3.83;;
25637;SDS011;13496;51.040;13.680;2022-07-23T20:42:19;4.30;;;4.00;;
25637;SDS011;13496;51.040;13.680;2022-07-23T20:47:21;4.28;;;3.97;;
25637;SDS011;13496;51.040;13.680;2022-07-23T20:52:23;4.07;;;3.78;;
25637;SDS011;13496;51.040;13.680;2022-07-23T20:57:25;4.28;;;3.97;;
25637;SDS011;13496;51.040;13.680;2022-07-23T21:02:26;4.20;;;3.90;;
25637;SDS011;13496;51.040;13.680;2022-07-23T21:07:28;4.32;;;4.00;;
25637;SDS011;13496;51.040;13.680;2022-07-23T21:12:30;4.20;;;3.90;;
25637;SDS011;13496;51.040;13.680;2022-07-23T21:17:31;4.25;;;3.95;;
25637;SDS011;13496;51.040;13.680;2022-07-23T21:22:33;4.40;;;4.10;;
25637;SDS011;13496;51.040;13.680;2022-07-23T21:27:35;4.30;;;4.00;;
25637;SDS011;13496;51.040;13.680;2022-07-23T21:32:37;4.35;;;4.05;;
25637;SDS011;13496;51.040;13.680;2022-07-23T21:37:39;4.57;;;4.18;;
25637;SDS011;13496;51.040;13.680;2022-07-23T21:42:41;4.18;;;3.88;;
25637;SDS011;13496;51.040;13.680;2022-07-23T21:47:42;4.32;;;4.03;;
25637;SDS011;13496;51.040;13.680;2022-07-23T21:52:44;4.50;;;4.20;;
25637;SDS011;13496;51.040;13.680;2022-07-23T21:57:46;4.30;;;4.00;;
25637;SDS011;13496;51.040;13.680;2022-07-23T22:02:48;4.53;;;4.18;;
25637;SDS011;13496;51.040;13.680;2022-07-23T22:07:49;4.05;;;3.78;;
25637;SDS011;13496;51.040;13.680;2022-07-23T22:12:51;4.43;;;4.13;;
25637;SDS011;13496;51.040;13.680;2022-07-23T22:17:53;3.83;;;3.63;;
25637;SDS011;13496;51.040;13.680;2022-07-23T22:22:55;4.63;;;4.32;;
25637;SDS011;13496;51.040;13.680;2022-07-23T22:27:57;4.28;;;3.97;;
25637;SDS011;13496;51.040;13.680;2022-07-23T22:32:59;4.45;;;4.15;;
25637;SDS011;13496;51.040;13.680;2022-07-23T22:38:00;4.88;;;4.47;;
25637;SDS011;13496;51.040;13.680;2022-07-23T22:43:02;4.25;;;3.95;;
25637;SDS011;13496;51.040;13.680;2022-07-23T22:48:04;3.97;;;3.78;;
25637;SDS011;13496;51.040;13.680;2022-07-23T22:53:06;3.72;;;3.42;;
25637;SDS011;13496;51.040;13.680;2022-07-23T22:58:07;4.40;;;4.10;;
25637;SDS011;13496;51.040;13.680;2022-07-23T23:03:09;4.53;;;4.22;;
25637;SDS011;13496;51.040;13.680;2022-07-23T23:08:11;4.50;;;4.20;;
25637;SDS011;13496;51.040;13.680;2022-07-23T23:13:12;4.30;;;4.00;;
25637;SDS011;13496;51.040;13.680;2022-07-23T23:18:14;4.50;;;4.20;;
25637;SDS011;13496;51.040;13.680;2022-07-23T23:23:16;4.60;;;4.28;;
25637;SDS011;13496;51.040;13.680;2022-07-23T23:28:18;4.13;;;3.83;;
25637;SDS011;13496;51.040;13.680;2022-07-23T23:33:19;4.30;;;4.00;;
25637;SDS011;13496;51.040;13.680;2022-07-23T23:38:21;4.18;;;3.88;;
25637;SDS011;13496;51.040;13.680;2022-07-23T23:43:23;4.32;;;3.97;;
25637;SDS011;13496;51.040;13.680;2022-07-23T23:48:24;4.15;;;3.85;;
25637;SDS011;13496;51.040;13.680;2022-07-23T23:53:26;3.75;;;3.55;;
25637;SDS011;13496;51.040;13.680;2022-07-23T23:58:28;4.22;;;3.92;;
